Time,TemperatureF,DewpointF,PressureIn,WindDirection,WindDirectionDegrees,WindSpeedMPH,WindSpeedGustMPH,Humidity,HourlyPrecipIn,Conditions,Clouds,dailyrainin,SoftwareType,DateUTC
2013-06-17 00:01:00,65.0,45.9,30.10,North,0,0.0,0.0,50,0.00,,,0.00,WUHU216HW,2013-06-17 06:01:00,
2013-06-17 00:06:00,64.4,45.8,30.10,North,0,0.0,0.0,51,0.00,,,0.00,WUHU216HW,2013-06-17 06:06:00,
2013-06-17 00:11:00,63.7,45.7,30.10,North,0,0.0,0.0,52,0.00,,,0.00,WUHU216HW,2013-06-17 06:11:00,
2013-06-17 00:16:00,63.4,44.9,30.10,North,0,0.0,0.0,51,0.00,,,0.00,WUHU216HW,2013-06-17 06:16:00,
2013-06-17 00:21:00,63.2,44.7,30.10,North,0,0.0,0.0,51,0.00,,,0.00,WUHU216HW,2013-06-17 06:21:00,
2013-06-17 00:26:00,62.8,43.9,30.10,North,0,0.0,0.0,50,0.00,,,0.00,WUHU216HW,2013-06-17 06:26:00,
2013-06-17 00:31:00,62.3,43.4,30.10,North,0,0.0,0.0,50,0.00,,,0.00,WUHU216HW,2013-06-17 06:31:00,
2013-06-17 00:36:00,61.6,42.8,30.10,North,0,0.0,0.0,50,0.00,,,0.00,WUHU216HW,2013-06-17 06:36:00,
2013-06-17 00:41:00,60.8,43.1,30.10,North,0,0.0,0.0,52,0.00,,,0.00,WUHU216HW,2013-06-17 06:41:00,
2013-06-17 00:46:00,60.3,43.1,30.10,North,0,0.0,0.0,53,0.00,,,0.00,WUHU216HW,2013-06-17 06:46:00,
2013-06-17 00:51:00,59.9,42.8,30.10,North,0,0.0,0.0,53,0.00,,,0.00,WUHU216HW,2013-06-17 06:51:00,
2013-06-17 00:56:00,59.4,42.8,30.10,North,0,0.0,0.0,54,0.00,,,0.00,WUHU216HW,2013-06-17 06:56:00,
2013-06-17 01:01:00,58.9,42.7,30.10,North,0,0.0,0.0,55,0.00,,,0.00,WUHU216HW,2013-06-17 07:01:00,
2013-06-17 01:06:00,58.5,42.9,30.09,North,0,0.0,0.0,56,0.00,,,0.00,WUHU216HW,2013-06-17 07:06:00,
2013-06-17 01:11:00,58.1,42.9,30.10,North,0,0.0,0.0,57,0.00,,,0.00,WUHU216HW,2013-06-17 07:11:00,
2013-06-17 01:16:00,57.8,43.1,30.10,North,0,0.0,0.0,58,0.00,,,0.00,WUHU216HW,2013-06-17 07:16:00,
2013-06-17 01:21:00,57.4,42.8,30.10,North,0,0.0,0.0,58,0.00,,,0.00,WUHU216HW,2013-06-17 07:21:00,
2013-06-17 01:26:00,57.2,42.7,30.11,North,0,0.0,0.0,58,0.00,,,0.00,WUHU216HW,2013-06-17 07:26:00,
2013-06-17 01:31:00,56.9,42.3,30.11,North,0,0.0,0.0,58,0.00,,,0.00,WUHU216HW,2013-06-17 07:31:00,
2013-06-17 01:36:00,56.7,42.1,30.11,North,0,0.0,0.0,58,0.00,,,0.00,WUHU216HW,2013-06-17 07:36:00,
2013-06-17 01:41:00,56.3,42.2,30.11,North,0,0.0,0.0,59,0.00,,,0.00,WUHU216HW,2013-06-17 07:41:00,
2013-06-17 01:46:00,56.0,42.3,30.11,North,0,0.0,0.0,60,0.00,,,0.00,WUHU216HW,2013-06-17 07:46:00,
2013-06-17 01:51:00,55.8,42.1,30.11,North,0,0.0,0.0,60,0.00,,,0.00,WUHU216HW,2013-06-17 07:51:00,
2013-06-17 01:56:00,55.4,42.2,30.11,North,0,0.0,0.0,61,0.00,,,0.00,WUHU216HW,2013-06-17 07:56:00,
2013-06-17 02:01:00,55.3,43.3,30.11,North,0,0.0,0.0,64,0.00,,,0.00,WUHU216HW,2013-06-17 08:01:00,
2013-06-17 02:06:00,55.3,43.3,30.11,North,0,0.0,0.0,64,0.00,,,0.00,WUHU216HW,2013-06-17 08:06:00,
2013-06-17 02:11:00,55.3,42.9,30.11,North,0,0.0,0.0,63,0.00,,,0.00,WUHU216HW,2013-06-17 08:11:00,
2013-06-17 02:16:00,55.1,42.7,30.11,North,0,0.0,0.0,63,0.00,,,0.00,WUHU216HW,2013-06-17 08:16:00,
2013-06-17 02:21:00,55.1,43.1,30.11,North,0,0.0,0.0,64,0.00,,,0.00,WUHU216HW,2013-06-17 08:21:00,
2013-06-17 02:26:00,55.1,45.1,30.11,North,0,0.0,0.0,69,0.00,,,0.00,WUHU216HW,2013-06-17 08:26:00,
2013-06-17 02:31:00,54.9,42.9,30.11,North,0,0.0,0.0,64,0.00,,,0.00,WUHU216HW,2013-06-17 08:31:00,
2013-06-17 02:36:00,54.7,43.1,30.11,North,0,0.0,0.0,65,0.00,,,0.00,WUHU216HW,2013-06-17 08:36:00,
2013-06-17 02:41:00,54.4,43.2,30.11,North,0,0.0,0.0,66,0.00,,,0.00,WUHU216HW,2013-06-17 08:41:00,
2013-06-17 02:46:00,54.4,43.2,30.11,North,0,0.0,0.0,66,0.00,,,0.00,WUHU216HW,2013-06-17 08:46:00,
2013-06-17 02:51:00,54.2,43.0,30.11,North,0,0.0,0.0,66,0.00,,,0.00,WUHU216HW,2013-06-17 08:51:00,
2013-06-17 02:56:00,54.0,42.8,30.11,North,0,0.0,0.0,66,0.00,,,0.00,WUHU216HW,2013-06-17 08:56:00,
2013-06-17 03:01:00,53.6,42.5,30.11,North,0,0.0,0.0,66,0.00,,,0.00,WUHU216HW,2013-06-17 09:01:00,
2013-06-17 03:06:00,53.5,42.4,30.11,North,0,0.0,0.0,66,0.00,,,0.00,WUHU216HW,2013-06-17 09:06:00,
2013-06-17 03:11:00,53.3,43.4,30.11,North,0,0.0,0.0,69,0.00,,,0.00,WUHU216HW,2013-06-17 09:11:00,
2013-06-17 03:16:00,53.1,42.4,30.11,North,0,0.0,0.0,67,0.00,,,0.00,WUHU216HW,2013-06-17 09:16:00,
2013-06-17 03:21:00,52.9,42.7,30.12,North,0,0.0,0.0,68,0.00,,,0.00,WUHU216HW,2013-06-17 09:21:00,
2013-06-17 03:26:00,52.9,43.0,30.11,North,0,0.0,0.0,69,0.00,,,0.00,WUHU216HW,2013-06-17 09:26:00,
2013-06-17 03:31:00,52.9,43.5,30.11,North,0,0.0,0.0,70,0.00,,,0.00,WUHU216HW,2013-06-17 09:31:00,
2013-06-17 03:36:00,52.7,43.3,30.11,North,0,0.0,0.0,70,0.00,,,0.00,WUHU216HW,2013-06-17 09:36:00,
2013-06-17 03:41:00,52.4,42.9,30.11,North,0,0.0,0.0,70,0.00,,,0.00,WUHU216HW,2013-06-17 09:41:00,
2013-06-17 03:46:00,52.2,43.1,30.11,North,0,0.0,0.0,71,0.00,,,0.00,WUHU216HW,2013-06-17 09:46:00,
2013-06-17 03:51:00,52.2,43.1,30.11,North,0,0.0,0.0,71,0.00,,,0.00,WUHU216HW,2013-06-17 09:51:00,
2013-06-17 03:56:00,52.0,43.0,30.11,North,0,0.0,0.0,71,0.00,,,0.00,WUHU216HW,2013-06-17 09:56:00,
2013-06-17 04:01:00,51.8,42.5,30.11,North,0,0.0,0.0,70,0.00,,,0.00,WUHU216HW,2013-06-17 10:01:00,
2013-06-17 04:06:00,51.8,42.9,30.11,North,0,0.0,0.0,71,0.00,,,0.00,WUHU216HW,2013-06-17 10:06:00,
2013-06-17 04:11:00,51.7,43.0,30.11,North,0,0.0,0.0,72,0.00,,,0.00,WUHU216HW,2013-06-17 10:11:00,
2013-06-17 04:16:00,51.5,42.5,30.11,North,0,0.0,0.0,71,0.00,,,0.00,WUHU216HW,2013-06-17 10:16:00,
2013-06-17 04:21:00,51.3,42.3,30.11,North,0,0.0,0.0,71,0.00,,,0.00,WUHU216HW,2013-06-17 10:21:00,
2013-06-17 04:26:00,50.9,42.0,30.11,North,0,0.0,0.0,71,0.00,,,0.00,WUHU216HW,2013-06-17 10:26:00,
2013-06-17 04:31:00,50.8,42.1,30.11,North,0,0.0,0.0,72,0.00,,,0.00,WUHU216HW,2013-06-17 10:31:00,
2013-06-17 04:36:00,50.6,42.0,30.11,North,0,0.0,0.0,72,0.00,,,0.00,WUHU216HW,2013-06-17 10:36:00,
2013-06-17 04:41:00,50.2,41.6,30.11,North,0,0.0,0.0,72,0.00,,,0.00,WUHU216HW,2013-06-17 10:41:00,
2013-06-17 04:46:00,50.0,41.7,30.11,North,0,0.0,0.0,73,0.00,,,0.00,WUHU216HW,2013-06-17 10:46:00,
2013-06-17 04:51:00,49.7,41.3,30.11,North,0,0.0,0.0,73,0.00,,,0.00,WUHU216HW,2013-06-17 10:51:00,
2013-06-17 04:56:00,49.5,40.9,30.11,North,0,0.0,0.0,72,0.00,,,0.00,WUHU216HW,2013-06-17 10:56:00,
2013-06-17 05:01:00,49.1,40.5,30.11,North,0,0.0,0.0,72,0.00,,,0.00,WUHU216HW,2013-06-17 11:01:00,
2013-06-17 05:06:00,49.0,40.6,30.11,North,0,0.0,0.0,73,0.00,,,0.00,WUHU216HW,2013-06-17 11:06:00,
2013-06-17 05:11:00,48.8,41.9,30.11,North,0,0.0,0.0,77,0.00,,,0.00,WUHU216HW,2013-06-17 11:11:00,
2013-06-17 05:16:00,48.8,41.5,30.11,North,0,0.0,0.0,76,0.00,,,0.00,WUHU216HW,2013-06-17 11:16:00,
2013-06-17 05:21:00,48.8,41.1,30.12,North,0,0.0,0.0,75,0.00,,,0.00,WUHU216HW,2013-06-17 11:21:00,
2013-06-17 05:26:00,48.6,41.3,30.12,North,0,0.0,0.0,76,0.00,,,0.00,WUHU216HW,2013-06-17 11:26:00,
2013-06-17 05:31:00,48.6,41.7,30.12,North,0,0.0,0.0,77,0.00,,,0.00,WUHU216HW,2013-06-17 11:31:00,
2013-06-17 05:36:00,48.2,41.0,30.12,North,0,0.0,0.0,76,0.00,,,0.00,WUHU216HW,2013-06-17 11:36:00,
2013-06-17 05:41:00,48.1,40.8,30.12,North,0,0.0,0.0,76,0.00,,,0.00,WUHU216HW,2013-06-17 11:41:00,
2013-06-17 05:46:00,47.9,41.0,30.12,North,0,0.0,0.0,77,0.00,,,0.00,WUHU216HW,2013-06-17 11:46:00,
2013-06-17 05:51:00,47.7,40.8,30.12,North,0,0.0,0.0,77,0.00,,,0.00,WUHU216HW,2013-06-17 11:51:00,
2013-06-17 05:56:00,47.5,40.6,30.12,North,0,0.0,0.0,77,0.00,,,0.00,WUHU216HW,2013-06-17 11:56:00,
2013-06-17 06:01:00,47.5,41.0,30.12,North,0,0.0,0.0,78,0.00,,,0.00,WUHU216HW,2013-06-17 12:01:00,
2013-06-17 06:06:00,47.7,41.1,30.12,North,0,0.0,0.0,78,0.00,,,0.00,WUHU216HW,2013-06-17 12:06:00,
2013-06-17 06:11:00,47.7,41.5,30.12,North,0,0.0,0.0,79,0.00,,,0.00,WUHU216HW,2013-06-17 12:11:00,
2013-06-17 06:16:00,47.9,41.7,30.12,North,0,0.0,0.0,79,0.00,,,0.00,WUHU216HW,2013-06-17 12:16:00,
2013-06-17 06:21:00,48.1,41.8,30.12,North,0,0.0,0.0,79,0.00,,,0.00,WUHU216HW,2013-06-17 12:21:00,
2013-06-17 06:26:00,49.5,44.2,30.12,North,0,0.0,0.0,82,0.00,,,0.00,WUHU216HW,2013-06-17 12:26:00,
2013-06-17 06:31:00,51.1,45.5,30.13,North,0,0.0,0.0,81,0.00,,,0.00,WUHU216HW,2013-06-17 12:31:00,
2013-06-17 06:36:00,52.4,45.4,30.13,North,0,0.0,0.0,77,0.00,,,0.00,WUHU216HW,2013-06-17 12:36:00,
2013-06-17 06:41:00,52.6,44.9,30.13,North,0,0.0,0.0,75,0.00,,,0.00,WUHU216HW,2013-06-17 12:41:00,
2013-06-17 06:46:00,52.6,44.6,30.13,North,0,0.0,0.0,74,0.00,,,0.00,WUHU216HW,2013-06-17 12:46:00,
2013-06-17 06:51:00,52.4,44.7,30.13,North,0,0.0,0.0,75,0.00,,,0.00,WUHU216HW,2013-06-17 12:51:00,
2013-06-17 06:56:00,52.2,44.6,30.13,North,0,0.0,0.0,75,0.00,,,0.00,WUHU216HW,2013-06-17 12:56:00,
2013-06-17 07:01:00,52.2,44.6,30.13,North,0,0.0,0.0,75,0.00,,,0.00,WUHU216HW,2013-06-17 13:01:00,
2013-06-17 07:06:00,52.6,44.9,30.13,North,0,0.0,0.0,75,0.00,,,0.00,WUHU216HW,2013-06-17 13:06:00,
2013-06-17 07:11:00,52.7,45.0,30.13,North,0,0.0,0.0,75,0.00,,,0.00,WUHU216HW,2013-06-17 13:11:00,
2013-06-17 07:16:00,53.1,45.7,30.13,North,0,0.0,0.0,76,0.00,,,0.00,WUHU216HW,2013-06-17 13:16:00,
2013-06-17 07:21:00,53.5,46.1,30.13,North,0,0.0,0.0,76,0.00,,,0.00,WUHU216HW,2013-06-17 13:21:00,
2013-06-17 07:26:00,53.8,46.1,30.13,North,0,0.0,0.0,75,0.00,,,0.00,WUHU216HW,2013-06-17 13:26:00,
2013-06-17 07:31:00,54.4,46.6,30.14,North,0,0.0,0.0,75,0.00,,,0.00,WUHU216HW,2013-06-17 13:31:00,
2013-06-17 07:36:00,54.7,46.9,30.14,North,0,0.0,0.0,75,0.00,,,0.00,WUHU216HW,2013-06-17 13:36:00,
2013-06-17 07:41:00,55.1,46.9,30.14,North,0,0.0,0.0,74,0.00,,,0.00,WUHU216HW,2013-06-17 13:41:00,
2013-06-17 07:46:00,55.6,47.4,30.14,North,0,0.0,0.0,74,0.00,,,0.00,WUHU216HW,2013-06-17 13:46:00,
2013-06-17 07:51:00,56.2,47.6,30.14,North,0,0.0,0.0,73,0.00,,,0.00,WUHU216HW,2013-06-17 13:51:00,
2013-06-17 07:56:00,56.9,47.9,30.14,North,0,0.0,0.0,72,0.00,,,0.00,WUHU216HW,2013-06-17 13:56:00,
2013-06-17 08:01:00,57.4,48.1,30.14,North,0,0.0,0.0,71,0.00,,,0.00,WUHU216HW,2013-06-17 14:01:00,
2013-06-17 08:06:00,57.6,47.9,30.14,North,0,0.0,0.0,70,0.00,,,0.00,WUHU216HW,2013-06-17 14:06:00,
2013-06-17 08:11:00,58.0,47.9,30.14,North,0,0.0,0.0,69,0.00,,,0.00,WUHU216HW,2013-06-17 14:11:00,
2013-06-17 08:16:00,58.1,47.6,30.13,North,0,0.0,0.0,68,0.00,,,0.00,WUHU216HW,2013-06-17 14:16:00,
2013-06-17 08:21:00,58.5,48.0,30.13,North,0,0.0,0.0,68,0.00,,,0.00,WUHU216HW,2013-06-17 14:21:00,
2013-06-17 08:26:00,58.9,47.5,30.13,North,0,0.0,0.0,66,0.00,,,0.00,WUHU216HW,2013-06-17 14:26:00,
2013-06-17 08:31:00,59.4,48.1,30.13,North,0,0.0,0.0,66,0.00,,,0.00,WUHU216HW,2013-06-17 14:31:00,
2013-06-17 08:36:00,59.9,47.7,30.13,North,0,0.0,0.0,64,0.00,,,0.00,WUHU216HW,2013-06-17 14:36:00,
2013-06-17 08:41:00,60.1,48.3,30.13,North,0,0.0,0.0,65,0.00,,,0.00,WUHU216HW,2013-06-17 14:41:00,
2013-06-17 08:46:00,60.7,48.9,30.13,North,0,0.0,0.0,65,0.00,,,0.00,WUHU216HW,2013-06-17 14:46:00,
2013-06-17 08:51:00,61.2,49.4,30.13,North,0,0.0,0.0,65,0.00,,,0.00,WUHU216HW,2013-06-17 14:51:00,
2013-06-17 08:56:00,61.9,50.1,30.13,North,0,0.0,0.0,65,0.00,,,0.00,WUHU216HW,2013-06-17 14:56:00,
2013-06-17 09:01:00,62.3,50.0,30.13,North,0,0.0,0.0,64,0.00,,,0.00,WUHU216HW,2013-06-17 15:01:00,
2013-06-17 09:06:00,62.6,49.9,30.12,North,0,0.0,0.0,63,0.00,,,0.00,WUHU216HW,2013-06-17 15:06:00,
2013-06-17 09:11:00,63.2,49.5,30.12,North,0,0.0,0.0,61,0.00,,,0.00,WUHU216HW,2013-06-17 15:11:00,
2013-06-17 09:16:00,63.7,50.4,30.12,North,0,0.0,0.0,62,0.00,,,0.00,WUHU216HW,2013-06-17 15:16:00,
2013-06-17 09:21:00,63.9,49.8,30.12,North,0,0.0,0.0,60,0.00,,,0.00,WUHU216HW,2013-06-17 15:21:00,
2013-06-17 09:26:00,64.1,49.9,30.12,North,0,0.0,0.0,60,0.00,,,0.00,WUHU216HW,2013-06-17 15:26:00,
2013-06-17 09:31:00,64.1,49.0,30.12,North,0,0.0,0.0,58,0.00,,,0.00,WUHU216HW,2013-06-17 15:31:00,
2013-06-17 09:36:00,64.4,49.8,30.12,North,0,0.0,0.0,59,0.00,,,0.00,WUHU216HW,2013-06-17 15:36:00,
2013-06-17 09:41:00,64.8,50.1,30.12,North,0,0.0,0.0,59,0.00,,,0.00,WUHU216HW,2013-06-17 15:41:00,
2013-06-17 09:46:00,65.3,50.7,30.11,North,0,0.0,0.0,59,0.00,,,0.00,WUHU216HW,2013-06-17 15:46:00,
2013-06-17 09:51:00,65.9,50.7,30.11,North,0,0.0,0.0,58,0.00,,,0.00,WUHU216HW,2013-06-17 15:51:00,
2013-06-17 09:56:00,66.2,51.0,30.11,North,0,0.0,0.0,58,0.00,,,0.00,WUHU216HW,2013-06-17 15:56:00,
2013-06-17 10:01:00,66.4,50.2,30.11,North,0,0.0,0.0,56,0.00,,,0.00,WUHU216HW,2013-06-17 16:01:00,
2013-06-17 10:06:00,66.2,49.6,30.11,North,0,0.0,0.0,55,0.00,,,0.00,WUHU216HW,2013-06-17 16:06:00,
2013-06-17 10:11:00,66.2,50.0,30.11,North,0,0.0,0.0,56,0.00,,,0.00,WUHU216HW,2013-06-17 16:11:00,
2013-06-17 10:16:00,67.0,50.2,30.11,North,0,0.0,0.0,55,0.00,,,0.00,WUHU216HW,2013-06-17 16:16:00,
2013-06-17 10:21:00,67.3,51.0,30.11,North,0,0.0,0.0,56,0.00,,,0.00,WUHU216HW,2013-06-17 16:21:00,
2013-06-17 10:26:00,68.0,51.2,30.10,North,0,0.0,0.0,55,0.00,,,0.00,WUHU216HW,2013-06-17 16:26:00,
2013-06-17 10:31:00,68.2,50.9,30.10,North,0,0.0,0.0,54,0.00,,,0.00,WUHU216HW,2013-06-17 16:31:00,
2013-06-17 10:36:00,68.4,51.0,30.10,North,0,0.0,0.0,54,0.00,,,0.00,WUHU216HW,2013-06-17 16:36:00,
2013-06-17 10:41:00,68.9,51.1,30.10,North,0,0.0,0.0,53,0.00,,,0.00,WUHU216HW,2013-06-17 16:41:00,
2013-06-17 10:46:00,69.5,51.6,30.10,North,0,0.0,0.0,53,0.00,,,0.00,WUHU216HW,2013-06-17 16:46:00,
2013-06-17 10:51:00,70.0,52.1,30.10,North,0,0.0,0.0,53,0.00,,,0.00,WUHU216HW,2013-06-17 16:51:00,
2013-06-17 10:56:00,70.6,52.0,30.09,North,0,0.0,0.0,52,0.00,,,0.00,WUHU216HW,2013-06-17 16:56:00,
2013-06-17 11:01:00,70.6,51.0,30.09,North,0,0.0,0.0,50,0.00,,,0.00,WUHU216HW,2013-06-17 17:01:00,
2013-06-17 11:06:00,70.6,52.0,30.09,North,0,0.0,0.0,52,0.00,,,0.00,WUHU216HW,2013-06-17 17:06:00,
2013-06-17 11:11:00,70.9,51.8,30.09,North,0,0.0,0.0,51,0.00,,,0.00,WUHU216HW,2013-06-17 17:11:00,
2013-06-17 11:16:00,71.3,51.7,30.09,North,0,0.0,0.0,50,0.00,,,0.00,WUHU216HW,2013-06-17 17:16:00,
2013-06-17 11:21:00,71.3,52.2,30.09,North,0,0.0,0.0,51,0.00,,,0.00,WUHU216HW,2013-06-17 17:21:00,
2013-06-17 11:26:00,71.8,52.7,30.09,North,0,0.0,0.0,51,0.00,,,0.00,WUHU216HW,2013-06-17 17:26:00,
2013-06-17 11:31:00,72.4,53.2,30.08,North,0,0.0,0.0,51,0.00,,,0.00,WUHU216HW,2013-06-17 17:31:00,
2013-06-17 11:36:00,72.9,52.6,30.08,North,0,0.0,0.0,49,0.00,,,0.00,WUHU216HW,2013-06-17 17:36:00,
2013-06-17 11:41:00,73.1,52.1,30.08,North,0,0.0,0.0,48,0.00,,,0.00,WUHU216HW,2013-06-17 17:41:00,
2013-06-17 11:46:00,72.7,51.9,30.08,North,0,0.0,0.0,48,0.00,,,0.00,WUHU216HW,2013-06-17 17:46:00,
2013-06-17 11:51:00,72.5,50.5,30.08,North,0,0.0,0.0,46,0.00,,,0.00,WUHU216HW,2013-06-17 17:51:00,
2013-06-17 11:56:00,72.7,52.4,30.08,North,0,0.0,0.0,49,0.00,,,0.00,WUHU216HW,2013-06-17 17:56:00,
2013-06-17 12:01:00,73.6,53.2,30.08,North,0,0.0,0.0,49,0.00,,,0.00,WUHU216HW,2013-06-17 18:01:00,
2013-06-17 12:06:00,74.5,54.1,30.07,North,0,0.0,0.0,49,0.00,,,0.00,WUHU216HW,2013-06-17 18:06:00,
2013-06-17 12:11:00,75.1,54.0,30.07,North,0,0.0,0.0,48,0.00,,,0.00,WUHU216HW,2013-06-17 18:11:00,
2013-06-17 12:16:00,75.2,51.8,30.07,North,0,0.0,0.0,44,0.00,,,0.00,WUHU216HW,2013-06-17 18:16:00,
2013-06-17 12:21:00,75.2,53.0,30.07,North,0,0.0,0.0,46,0.00,,,0.00,WUHU216HW,2013-06-17 18:21:00,
2013-06-17 12:26:00,75.2,53.0,30.07,North,0,0.0,0.0,46,0.00,,,0.00,WUHU216HW,2013-06-17 18:26:00,
2013-06-17 12:31:00,75.8,54.1,30.06,North,0,0.0,0.0,47,0.00,,,0.00,WUHU216HW,2013-06-17 18:31:00,
2013-06-17 12:36:00,76.1,53.2,30.06,North,0,0.0,0.0,45,0.00,,,0.00,WUHU216HW,2013-06-17 18:36:00,
2013-06-17 12:41:00,76.3,53.4,30.06,North,0,0.0,0.0,45,0.00,,,0.00,WUHU216HW,2013-06-17 18:41:00,
2013-06-17 12:46:00,76.5,52.3,30.06,North,0,0.0,0.0,43,0.00,,,0.00,WUHU216HW,2013-06-17 18:46:00,
2013-06-17 12:51:00,77.0,52.7,30.05,North,0,0.0,0.0,43,0.00,,,0.00,WUHU216HW,2013-06-17 18:51:00,
2013-06-17 12:56:00,77.8,52.2,30.05,North,0,0.0,0.0,41,0.00,,,0.00,WUHU216HW,2013-06-17 18:56:00,
2013-06-17 13:01:00,77.8,51.6,30.05,North,0,0.0,0.0,40,0.00,,,0.00,WUHU216HW,2013-06-17 19:01:00,
2013-06-17 13:06:00,77.4,51.8,30.05,North,0,0.0,0.0,41,0.00,,,0.00,WUHU216HW,2013-06-17 19:06:00,
2013-06-17 13:11:00,77.6,52.7,30.05,North,0,0.0,0.0,42,0.00,,,0.00,WUHU216HW,2013-06-17 19:11:00,
2013-06-17 13:16:00,78.3,52.7,30.04,North,0,0.0,0.0,41,0.00,,,0.00,WUHU216HW,2013-06-17 19:16:00,
2013-06-17 13:21:00,78.8,52.6,30.04,North,0,0.0,0.0,40,0.00,,,0.00,WUHU216HW,2013-06-17 19:21:00,
2013-06-17 13:26:00,79.2,51.3,30.04,North,0,0.0,0.0,38,0.00,,,0.00,WUHU216HW,2013-06-17 19:26:00,
2013-06-17 13:31:00,79.6,51.7,30.04,North,0,0.0,0.0,38,0.00,,,0.00,WUHU216HW,2013-06-17 19:31:00,
2013-06-17 13:36:00,79.6,51.7,30.04,North,0,0.0,0.0,38,0.00,,,0.00,WUHU216HW,2013-06-17 19:36:00,
2013-06-17 13:41:00,80.3,52.3,30.04,North,0,0.0,0.0,38,0.00,,,0.00,WUHU216HW,2013-06-17 19:41:00,
2013-06-17 13:46:00,80.5,50.1,30.03,North,0,0.0,0.0,35,0.00,,,0.00,WUHU216HW,2013-06-17 19:46:00,
2013-06-17 13:51:00,80.6,50.3,30.03,North,0,0.0,0.0,35,0.00,,,0.00,WUHU216HW,2013-06-17 19:51:00,
2013-06-17 13:56:00,81.0,49.1,30.03,North,0,0.0,0.0,33,0.00,,,0.00,WUHU216HW,2013-06-17 19:56:00,
2013-06-17 14:01:00,80.6,50.3,30.03,North,0,0.0,0.0,35,0.00,,,0.00,WUHU216HW,2013-06-17 20:01:00,
2013-06-17 14:06:00,81.0,50.6,30.03,North,0,0.0,0.0,35,0.00,,,0.00,WUHU216HW,2013-06-17 20:06:00,
2013-06-17 14:11:00,81.4,51.0,30.03,North,0,0.0,0.0,35,0.00,,,0.00,WUHU216HW,2013-06-17 20:11:00,
2013-06-17 14:16:00,82.3,50.1,30.02,North,0,0.0,0.0,33,0.00,,,0.00,WUHU216HW,2013-06-17 20:16:00,
2013-06-17 14:21:00,82.8,50.6,30.02,North,0,0.0,0.0,33,0.00,,,0.00,WUHU216HW,2013-06-17 20:21:00,
2013-06-17 14:26:00,82.6,49.6,30.02,North,0,0.0,0.0,32,0.00,,,0.00,WUHU216HW,2013-06-17 20:26:00,
2013-06-17 14:31:00,82.8,49.8,30.01,North,0,0.0,0.0,32,0.00,,,0.00,WUHU216HW,2013-06-17 20:31:00,
2013-06-17 14:36:00,83.0,50.0,30.01,North,0,0.0,0.0,32,0.00,,,0.00,WUHU216HW,2013-06-17 20:36:00,
2013-06-17 14:41:00,83.2,48.5,30.01,North,0,0.0,0.0,30,0.00,,,0.00,WUHU216HW,2013-06-17 20:41:00,
2013-06-17 14:46:00,83.3,48.7,30.01,North,0,0.0,0.0,30,0.00,,,0.00,WUHU216HW,2013-06-17 20:46:00,
2013-06-17 14:51:00,83.5,48.9,30.01,North,0,0.0,0.0,30,0.00,,,0.00,WUHU216HW,2013-06-17 20:51:00,
2013-06-17 14:56:00,83.2,47.5,30.00,North,0,0.0,0.0,29,0.00,,,0.00,WUHU216HW,2013-06-17 20:56:00,
2013-06-17 15:01:00,83.5,48.9,30.00,North,0,0.0,0.0,30,0.00,,,0.00,WUHU216HW,2013-06-17 21:01:00,
2013-06-17 15:06:00,84.2,48.4,30.00,North,0,0.0,0.0,29,0.00,,,0.00,WUHU216HW,2013-06-17 21:06:00,
2013-06-17 15:11:00,84.8,47.9,30.00,North,0,0.0,0.0,28,0.00,,,0.00,WUHU216HW,2013-06-17 21:11:00,
2013-06-17 15:16:00,85.1,48.2,30.00,North,0,0.0,0.0,28,0.00,,,0.00,WUHU216HW,2013-06-17 21:16:00,
2013-06-17 15:21:00,84.8,45.7,29.99,North,0,0.0,0.0,26,0.00,,,0.00,WUHU216HW,2013-06-17 21:21:00,
2013-06-17 15:26:00,84.6,46.6,29.99,North,0,0.0,0.0,27,0.00,,,0.00,WUHU216HW,2013-06-17 21:26:00,
2013-06-17 15:31:00,85.5,46.4,29.99,North,0,0.0,0.0,26,0.00,,,0.00,WUHU216HW,2013-06-17 21:31:00,
2013-06-17 15:36:00,86.6,49.4,29.99,North,0,0.0,0.0,28,0.00,,,0.00,WUHU216HW,2013-06-17 21:36:00,
2013-06-17 15:41:00,87.1,46.6,29.98,North,0,0.0,0.0,25,0.00,,,0.00,WUHU216HW,2013-06-17 21:41:00,
2013-06-17 15:46:00,87.5,47.0,29.98,North,0,0.0,0.0,25,0.00,,,0.00,WUHU216HW,2013-06-17 21:46:00,
2013-06-17 15:51:00,87.8,44.1,29.98,North,0,0.0,0.0,22,0.00,,,0.00,WUHU216HW,2013-06-17 21:51:00,
2013-06-17 15:56:00,87.8,40.2,29.98,North,0,0.0,0.0,19,0.00,,,0.00,WUHU216HW,2013-06-17 21:56:00,
2013-06-17 16:01:00,87.1,42.4,29.98,North,0,0.0,0.0,21,0.00,,,0.00,WUHU216HW,2013-06-17 22:01:00,
2013-06-17 16:06:00,86.9,37.7,29.98,North,0,0.0,0.0,18,0.00,,,0.00,WUHU216HW,2013-06-17 22:06:00,
2013-06-17 16:11:00,86.6,37.4,29.97,North,0,0.0,0.0,18,0.00,,,0.00,WUHU216HW,2013-06-17 22:11:00,
2013-06-17 16:16:00,86.0,36.9,29.97,North,0,0.0,0.0,18,0.00,,,0.00,WUHU216HW,2013-06-17 22:16:00,
2013-06-17 16:21:00,86.2,38.8,29.97,North,0,0.0,0.0,19,0.00,,,0.00,WUHU216HW,2013-06-17 22:21:00,
2013-06-17 16:26:00,86.8,42.0,29.97,North,0,0.0,0.0,21,0.00,,,0.00,WUHU216HW,2013-06-17 22:26:00,
2013-06-17 16:31:00,88.2,43.3,29.97,North,0,0.0,0.0,21,0.00,,,0.00,WUHU216HW,2013-06-17 22:31:00,
2013-06-17 16:36:00,90.9,45.5,29.96,North,0,0.0,0.0,21,0.00,,,0.00,WUHU216HW,2013-06-17 22:36:00,
2013-06-17 16:41:00,93.8,44.9,29.96,North,0,0.0,0.0,19,0.00,,,0.00,WUHU216HW,2013-06-17 22:41:00,
2013-06-17 16:46:00,96.1,46.9,29.96,North,0,0.0,0.0,19,0.00,,,0.00,WUHU216HW,2013-06-17 22:46:00,
2013-06-17 16:51:00,97.6,44.5,29.96,North,0,0.0,0.0,17,0.00,,,0.00,WUHU216HW,2013-06-17 22:51:00,
2013-06-17 16:56:00,98.3,36.1,29.96,North,0,0.0,0.0,12,0.00,,,0.00,WUHU216HW,2013-06-17 22:56:00,
2013-06-17 17:01:00,98.5,43.4,29.96,North,0,0.0,0.0,16,0.00,,,0.00,WUHU216HW,2013-06-17 23:01:00,
2013-06-17 17:06:00,99.5,46.1,29.96,North,0,0.0,0.0,17,0.00,,,0.00,WUHU216HW,2013-06-17 23:06:00,
2013-06-17 17:11:00,100.6,45.2,29.96,North,0,0.0,0.0,16,0.00,,,0.00,WUHU216HW,2013-06-17 23:11:00,
2013-06-17 17:16:00,99.9,37.4,29.96,North,0,0.0,0.0,12,0.00,,,0.00,WUHU216HW,2013-06-17 23:16:00,
2013-06-17 17:21:00,99.0,38.4,29.96,North,0,0.0,0.0,13,0.00,,,0.00,WUHU216HW,2013-06-17 23:21:00,
2013-06-17 17:26:00,99.0,33.0,29.95,North,0,0.0,0.0,10,0.00,,,0.00,WUHU216HW,2013-06-17 23:26:00,
2013-06-17 17:31:00,97.4,33.6,29.95,North,0,0.0,0.0,11,0.00,,,0.00,WUHU216HW,2013-06-17 23:31:00,
2013-06-17 17:36:00,96.1,34.4,29.95,North,0,0.0,0.0,12,0.00,,,0.00,WUHU216HW,2013-06-17 23:36:00,
2013-06-17 17:41:00,95.8,35.9,29.95,North,0,0.0,0.0,13,0.00,,,0.00,WUHU216HW,2013-06-17 23:41:00,
2013-06-17 17:46:00,97.6,40.9,29.95,North,0,0.0,0.0,15,0.00,,,0.00,WUHU216HW,2013-06-17 23:46:00,
2013-06-17 17:51:00,98.5,41.6,29.95,North,0,0.0,0.0,15,0.00,,,0.00,WUHU216HW,2013-06-17 23:51:00,
2013-06-17 17:56:00,97.9,37.6,29.94,North,0,0.0,0.0,13,0.00,,,0.00,WUHU216HW,2013-06-17 23:56:00,
2013-06-17 18:01:00,98.8,38.4,29.94,North,0,0.0,0.0,13,0.00,,,0.00,WUHU216HW,2013-06-18 00:01:00,
2013-06-17 18:06:00,99.9,42.8,29.94,North,0,0.0,0.0,15,0.00,,,0.00,WUHU216HW,2013-06-18 00:06:00,
2013-06-17 18:11:00,101.5,42.2,29.94,North,0,0.0,0.0,14,0.00,,,0.00,WUHU216HW,2013-06-18 00:11:00,
2013-06-17 18:16:00,102.2,39.1,29.94,North,0,0.0,0.0,12,0.00,,,0.00,WUHU216HW,2013-06-18 00:16:00,
2013-06-17 18:21:00,102.2,39.1,29.93,North,0,0.0,0.0,12,0.00,,,0.00,WUHU216HW,2013-06-18 00:21:00,
2013-06-17 18:26:00,99.9,37.4,29.93,North,0,0.0,0.0,12,0.00,,,0.00,WUHU216HW,2013-06-18 00:26:00,
2013-06-17 18:31:00,97.7,37.4,29.93,North,0,0.0,0.0,13,0.00,,,0.00,WUHU216HW,2013-06-18 00:31:00,
2013-06-17 18:36:00,96.5,36.5,29.93,North,0,0.0,0.0,13,0.00,,,0.00,WUHU216HW,2013-06-18 00:36:00,
2013-06-17 18:41:00,94.7,38.6,29.93,North,0,0.0,0.0,15,0.00,,,0.00,WUHU216HW,2013-06-18 00:41:00,
2013-06-17 18:46:00,93.2,39.3,29.93,North,0,0.0,0.0,16,0.00,,,0.00,WUHU216HW,2013-06-18 00:46:00,
2013-06-17 18:51:00,91.4,39.6,29.93,North,0,0.0,0.0,17,0.00,,,0.00,WUHU216HW,2013-06-18 00:51:00,
2013-06-17 18:56:00,90.4,40.5,29.93,North,0,0.0,0.0,18,0.00,,,0.00,WUHU216HW,2013-06-18 00:56:00,
2013-06-17 19:01:00,89.5,41.5,29.92,North,0,0.0,0.0,19,0.00,,,0.00,WUHU216HW,2013-06-18 01:01:00,
2013-06-17 19:06:00,88.2,43.3,29.93,North,0,0.0,0.0,21,0.00,,,0.00,WUHU216HW,2013-06-18 01:06:00,
2013-06-17 19:11:00,87.1,42.4,29.93,North,0,0.0,0.0,21,0.00,,,0.00,WUHU216HW,2013-06-18 01:11:00,
2013-06-17 19:16:00,86.2,42.7,29.92,North,0,0.0,0.0,22,0.00,,,0.00,WUHU216HW,2013-06-18 01:16:00,
2013-06-17 19:21:00,85.7,42.2,29.92,North,0,0.0,0.0,22,0.00,,,0.00,WUHU216HW,2013-06-18 01:21:00,
2013-06-17 19:26:00,85.0,42.7,29.92,North,0,0.0,0.0,23,0.00,,,0.00,WUHU216HW,2013-06-18 01:26:00,
2013-06-17 19:31:00,84.2,42.0,29.93,North,0,0.0,0.0,23,0.00,,,0.00,WUHU216HW,2013-06-18 01:31:00,
2013-06-17 19:36:00,83.5,41.5,29.93,North,0,0.0,0.0,23,0.00,,,0.00,WUHU216HW,2013-06-18 01:36:00,
2013-06-17 19:41:00,82.8,42.0,29.92,North,0,0.0,0.0,24,0.00,,,0.00,WUHU216HW,2013-06-18 01:41:00,
2013-06-17 19:46:00,82.4,42.7,29.93,North,0,0.0,0.0,25,0.00,,,0.00,WUHU216HW,2013-06-18 01:46:00,
2013-06-17 19:51:00,81.9,42.2,29.93,North,0,0.0,0.0,25,0.00,,,0.00,WUHU216HW,2013-06-18 01:51:00,
2013-06-17 19:56:00,81.0,41.5,29.93,North,0,0.0,0.0,25,0.00,,,0.00,WUHU216HW,2013-06-18 01:56:00,
2013-06-17 20:01:00,79.9,39.5,29.93,North,0,0.0,0.0,24,0.00,,,0.00,WUHU216HW,2013-06-18 02:01:00,
2013-06-17 20:06:00,79.6,40.2,29.93,North,0,0.0,0.0,25,0.00,,,0.00,WUHU216HW,2013-06-18 02:06:00,
2013-06-17 20:11:00,78.8,40.7,29.93,North,0,0.0,0.0,26,0.00,,,0.00,WUHU216HW,2013-06-18 02:11:00,
2013-06-17 20:16:00,78.1,39.1,29.93,North,0,0.0,0.0,25,0.00,,,0.00,WUHU216HW,2013-06-18 02:16:00,
2013-06-17 20:21:00,77.6,39.6,29.93,North,0,0.0,0.0,26,0.00,,,0.00,WUHU216HW,2013-06-18 02:21:00,
2013-06-17 20:26:00,77.0,39.3,29.93,North,0,0.0,0.0,26,0.00,,,0.00,WUHU216HW,2013-06-18 02:26:00,
2013-06-17 20:31:00,76.7,41.0,29.93,North,0,0.0,0.0,28,0.00,,,0.00,WUHU216HW,2013-06-18 02:31:00,
2013-06-17 20:36:00,76.1,40.5,29.93,North,0,0.0,0.0,28,0.00,,,0.00,WUHU216HW,2013-06-18 02:36:00,
2013-06-17 20:41:00,75.4,42.0,29.93,North,0,0.0,0.0,30,0.00,,,0.00,WUHU216HW,2013-06-18 02:41:00,
2013-06-17 20:46:00,74.9,41.4,29.93,North,0,0.0,0.0,30,0.00,,,0.00,WUHU216HW,2013-06-18 02:46:00,
2013-06-17 20:51:00,74.0,42.1,29.92,North,0,0.0,0.0,32,0.00,,,0.00,WUHU216HW,2013-06-18 02:51:00,
2013-06-17 20:56:00,73.4,42.4,29.92,North,0,0.0,0.0,33,0.00,,,0.00,WUHU216HW,2013-06-18 02:56:00,
2013-06-17 21:01:00,72.5,42.4,29.93,North,0,0.0,0.0,34,0.00,,,0.00,WUHU216HW,2013-06-18 03:01:00,
2013-06-17 21:06:00,72.4,42.3,29.93,North,0,0.0,0.0,34,0.00,,,0.00,WUHU216HW,2013-06-18 03:06:00,
2013-06-17 21:11:00,72.0,41.9,29.93,North,0,0.0,0.0,34,0.00,,,0.00,WUHU216HW,2013-06-18 03:11:00,
2013-06-17 21:16:00,71.6,41.7,29.93,North,0,0.0,0.0,34,0.00,,,0.00,WUHU216HW,2013-06-18 03:16:00,
2013-06-17 21:21:00,71.6,41.7,29.93,North,0,0.0,0.0,34,0.00,,,0.00,WUHU216HW,2013-06-18 03:21:00,
2013-06-17 21:26:00,71.6,41.7,29.92,North,0,0.0,0.0,34,0.00,,,0.00,WUHU216HW,2013-06-18 03:26:00,
2013-06-17 21:31:00,71.3,42.0,29.93,North,0,0.0,0.0,35,0.00,,,0.00,WUHU216HW,2013-06-18 03:31:00,
2013-06-17 21:36:00,71.1,43.4,29.93,North,0,0.0,0.0,37,0.00,,,0.00,WUHU216HW,2013-06-18 03:36:00,
2013-06-17 21:41:00,70.6,42.9,29.93,North,0,0.0,0.0,37,0.00,,,0.00,WUHU216HW,2013-06-18 03:41:00,
2013-06-17 21:46:00,70.6,42.9,29.93,North,0,0.0,0.0,37,0.00,,,0.00,WUHU216HW,2013-06-18 03:46:00,
2013-06-17 21:51:00,70.2,43.3,29.94,North,0,0.0,0.0,38,0.00,,,0.00,WUHU216HW,2013-06-18 03:51:00,
2013-06-17 21:56:00,69.8,43.0,29.94,North,0,0.0,0.0,38,0.00,,,0.00,WUHU216HW,2013-06-18 03:56:00,
2013-06-17 22:01:00,69.3,44.6,29.94,North,0,0.0,0.0,41,0.00,,,0.00,WUHU216HW,2013-06-18 04:01:00,
2013-06-17 22:02:00,69.1,44.4,29.94,North,0,0.0,0.0,41,0.00,,,0.00,WUHU216HW,2013-06-18 04:02:00,
2013-06-17 22:07:00,69.1,43.8,29.94,North,0,0.0,0.0,40,0.00,,,0.00,WUHU216HW,2013-06-18 04:07:00,
2013-06-17 22:12:00,68.8,43.5,29.94,North,0,0.0,0.0,40,0.00,,,0.00,WUHU216HW,2013-06-18 04:12:00,
2013-06-17 22:17:00,68.4,43.2,29.94,North,0,0.0,0.0,40,0.00,,,0.00,WUHU216HW,2013-06-18 04:17:00,
2013-06-17 22:22:00,68.0,42.1,29.94,North,0,0.0,0.0,39,0.00,,,0.00,WUHU216HW,2013-06-18 04:22:00,
2013-06-17 22:27:00,67.3,41.5,29.94,North,0,0.0,0.0,39,0.00,,,0.00,WUHU216HW,2013-06-18 04:27:00,
2013-06-17 22:32:00,66.8,41.7,29.94,North,0,0.0,0.0,40,0.00,,,0.00,WUHU216HW,2013-06-18 04:32:00,
2013-06-17 22:37:00,66.1,42.2,29.94,North,0,0.0,0.0,42,0.00,,,0.00,WUHU216HW,2013-06-18 04:37:00,
2013-06-17 22:42:00,65.3,42.2,29.94,North,0,0.0,0.0,43,0.00,,,0.00,WUHU216HW,2013-06-18 04:42:00,
2013-06-17 22:47:00,64.8,42.2,29.95,North,0,0.0,0.0,44,0.00,,,0.00,WUHU216HW,2013-06-18 04:47:00,
2013-06-17 22:52:00,64.4,44.2,29.95,North,0,0.0,0.0,48,0.00,,,0.00,WUHU216HW,2013-06-18 04:52:00,
2013-06-17 22:57:00,64.1,42.8,29.95,North,0,0.0,0.0,46,0.00,,,0.00,WUHU216HW,2013-06-18 04:57:00,
2013-06-17 23:02:00,64.1,42.8,29.95,North,0,0.0,0.0,46,0.00,,,0.00,WUHU216HW,2013-06-18 05:02:00,
2013-06-17 23:07:00,63.7,42.4,29.95,North,0,0.0,0.0,46,0.00,,,0.00,WUHU216HW,2013-06-18 05:07:00,
2013-06-17 23:12:00,63.7,43.6,29.95,North,0,0.0,0.0,48,0.00,,,0.00,WUHU216HW,2013-06-18 05:12:00,
2013-06-17 23:17:00,63.5,43.4,29.95,North,0,0.0,0.0,48,0.00,,,0.00,WUHU216HW,2013-06-18 05:17:00,
2013-06-17 23:22:00,63.5,43.4,29.95,North,0,0.0,0.0,48,0.00,,,0.00,WUHU216HW,2013-06-18 05:22:00,
2013-06-17 23:27:00,63.4,43.8,29.95,North,0,0.0,0.0,49,0.00,,,0.00,WUHU216HW,2013-06-18 05:27:00,
2013-06-17 23:32:00,63.2,43.7,29.95,North,0,0.0,0.0,49,0.00,,,0.00,WUHU216HW,2013-06-18 05:32:00,
2013-06-17 23:37:00,62.8,43.3,29.95,North,0,0.0,0.0,49,0.00,,,0.00,WUHU216HW,2013-06-18 05:37:00,
2013-06-17 23:42:00,62.6,43.7,29.95,North,0,0.0,0.0,50,0.00,,,0.00,WUHU216HW,2013-06-18 05:42:00,
2013-06-17 23:47:00,62.3,43.9,29.95,North,0,0.0,0.0,51,0.00,,,0.00,WUHU216HW,2013-06-18 05:47:00,
2013-06-17 23:52:00,61.9,44.1,29.95,North,0,0.0,0.0,52,0.00,,,0.00,WUHU216HW,2013-06-18 05:52:00,
2013-06-17 23:57:00,61.6,43.7,29.94,North,0,0.0,0.0,52,0.00,,,0.00,WUHU216HW,2013-06-18 05:57:00,